North Vernon, IN (47265)

9:03 AM EST on February 07, 2016 (GMT -0500)
Weston | | Change Station
CLOSE
Current Station
Personal Weather Station
Location: North Vernon, IN
Elevation: 597 ft
Nearby Weather Stations

Elev 597 ft 38.92 °N, 85.71 °W | Updated 13 seconds ago

Partly Cloudy
Partly Cloudy
36.0 °F
Feels Like 36 °F
N
2.7
Wind Variable Wind from SE

Today
High -- | Low -- °F
--% Chance of Precip.
Yesterday
High -- | Low -- °F
Precip. -- in
Pressure 30.08 in
Visibility 10.0 miles
Clouds Clear
Windchill 36 °F
Dew Point 26 °F
Humidity 67%
Rainfall 0.00 in
Snow Depth Not available.
7:43 AM 6:10 PM
Waning Crescent, 1% visible
METAR KBAK 071250Z 17008KT 10SM SKC M01/M07 A3008
Pressure 30.08 in
Visibility 10.0 miles
Clouds Clear
Windchill 36 °F
Dew Point 26 °F
Humidity 67%
Rainfall 0.00 in
Snow Depth Not available.
7:43 AM 6:10 PM
Waning Crescent, 1% visible
METAR KBAK 071250Z 17008KT 10SM SKC M01/M07 A3008

10-Day Weather Forecast

Almanac

Astronomy

Feb. 07, 2016 Rise Set
Actual Time
Civil Twilight
Nautical Twilight
Astronomical Twilight
Moon
Length of Visible Light
Length of Day
Tomorrow will be .
, % of the Moon is Illuminated

Today's Extremes

State Highs State Lows

Community

WunderPhotos

Upload Photos

1,891,204 photos uploaded!

WunderBlog® & News

Nearby

Air Quality

  Air Quality AQ Index Pollutant
Not available.

Snow Depth

Station Depth Elevation

Earthquake Activity

City Distance Mag. Time & Date
Minimum magnitude displayed is 2.5.

Coastal Water Temperatures

Place Temperature

Stations

Nearby Weather Stations

Station Location Temp. Windchill Dew Point Humidity Wind Precip. Elev Updated Type
                   

Watches & Warnings

There are currently no watches in effect.